createdAt,value
2023-03-22T00:01:57.231Z,7.25
2023-03-22T00:04:27.154Z,6.55
2023-03-22T00:06:58.018Z,5.95
2023-03-22T00:09:27.489Z,5.40
2023-03-22T00:11:57.147Z,6.05
2023-03-22T00:14:26.646Z,8.73
2023-03-22T00:16:55.993Z,10.07
2023-03-22T00:19:26.504Z,8.68
2023-03-22T00:21:57.325Z,12.13
2023-03-22T00:24:26.683Z,12.80
2023-03-22T00:26:56.714Z,11.57
2023-03-22T00:29:26.094Z,14.98
2023-03-22T00:31:56.349Z,12.57
2023-03-22T00:34:27.318Z,13.43
2023-03-22T00:36:58.028Z,12.10
2023-03-22T00:39:28.309Z,12.40
2023-03-22T00:41:57.732Z,12.63
2023-03-22T00:44:27.130Z,14.18
2023-03-22T00:50:19.718Z,12.90
2023-03-22T00:52:49.114Z,13.20
2023-03-22T00:55:18.750Z,13.32
2023-03-22T00:57:48.300Z,13.75
2023-03-22T01:00:19.010Z,13.88
2023-03-22T01:02:48.515Z,12.43
2023-03-22T01:05:22.185Z,13.52
2023-03-22T01:07:52.274Z,17.27
2023-03-22T01:10:22.136Z,13.50
2023-03-22T01:12:51.880Z,13.32
2023-03-22T01:15:22.833Z,13.07
2023-03-22T01:17:52.813Z,10.80
2023-03-22T01:20:23.808Z,13.48
2023-03-22T01:22:53.344Z,12.10
2023-03-22T01:25:23.116Z,17.27
2023-03-22T01:27:52.610Z,15.00
2023-03-22T01:30:22.348Z,13.20
2023-03-22T01:32:51.740Z,13.68
2023-03-22T01:35:23.009Z,13.75
2023-03-22T01:37:52.648Z,14.25
2023-03-22T01:40:22.407Z,12.75
2023-03-22T01:42:51.790Z,16.23
2023-03-22T01:45:42.372Z,15.40
2023-03-22T01:48:23.483Z,11.98
2023-03-22T01:51:05.233Z,14.23
2023-03-22T01:53:38.619Z,13.57
2023-03-22T01:56:09.394Z,18.17
2023-03-22T01:58:40.397Z,17.30
2023-03-22T02:01:12.286Z,14.02
2023-03-22T02:03:50.284Z,19.90
2023-03-22T02:06:22.371Z,16.95
2023-03-22T02:08:53.209Z,22.98
2023-03-22T02:11:32.577Z,17.80
2023-03-22T02:14:27.370Z,19.30
2023-03-22T02:17:23.876Z,18.63
2023-03-22T02:20:55.443Z,17.23
2023-03-22T02:24:23.782Z,16.67
2023-03-22T02:27:37.722Z,15.95
2023-03-22T02:30:39.260Z,14.45
2023-03-22T02:33:51.989Z,19.65
2023-03-22T02:37:08.793Z,16.88
2023-03-22T02:39:51.487Z,19.92
2023-03-22T02:42:41.657Z,16.80
2023-03-22T02:45:17.972Z,17.48
2023-03-22T02:48:00.833Z,17.35
2023-03-22T02:53:08.832Z,18.15
2023-03-22T02:55:45.848Z,16.48
2023-03-22T02:58:21.551Z,15.43
2023-03-22T03:00:57.040Z,15.05
2023-03-22T03:03:30.788Z,15.60
2023-03-22T03:06:04.627Z,23.73
2023-03-22T03:08:34.647Z,21.13
2023-03-22T03:11:05.731Z,22.38
2023-03-22T03:13:35.330Z,17.38
2023-03-22T03:16:08.085Z,16.10
2023-03-22T03:18:46.135Z,16.48
2023-03-22T03:21:32.926Z,17.90
2023-03-22T03:24:17.173Z,16.25
2023-03-22T03:26:57.803Z,17.13
2023-03-22T03:29:35.475Z,17.42
2023-03-22T03:32:09.756Z,16.52
2023-03-22T03:34:45.693Z,14.65
2023-03-22T03:37:20.087Z,15.13
2023-03-22T03:39:57.828Z,15.30
2023-03-22T03:42:31.600Z,13.77
2023-03-22T03:45:01.929Z,14.43
2023-03-22T03:47:31.834Z,15.20
2023-03-22T03:51:19.676Z,17.38
2023-03-22T03:53:49.148Z,19.58
2023-03-22T03:56:18.533Z,16.92
2023-03-22T03:58:48.086Z,14.02
2023-03-22T04:01:19.890Z,15.55
2023-03-22T04:03:50.915Z,16.90
2023-03-22T04:06:21.666Z,15.30
2023-03-22T04:08:53.972Z,24.02
2023-03-22T04:11:23.581Z,15.15
2023-03-22T04:13:53.050Z,16.20
2023-03-22T04:16:22.432Z,14.15
2023-03-22T04:18:51.952Z,15.85
2023-03-22T04:21:23.154Z,14.63
2023-03-22T04:23:52.514Z,16.45
2023-03-22T04:26:21.837Z,14.85
2023-03-22T04:28:51.298Z,14.70
2023-03-22T04:31:20.800Z,18.27
2023-03-22T04:33:55.143Z,17.27
2023-03-22T04:36:31.450Z,16.77
2023-03-22T04:39:00.894Z,14.95
2023-03-22T04:41:30.393Z,19.80
2023-03-22T04:44:03.681Z,20.48
2023-03-22T04:46:34.622Z,19.35
2023-03-22T04:49:04.636Z,19.08
2023-03-22T04:51:35.603Z,15.38
2023-03-22T04:54:05.085Z,15.82
2023-03-22T04:56:34.414Z,18.77
2023-03-22T04:59:03.958Z,16.63
2023-03-22T05:01:35.011Z,21.05
2023-03-22T05:04:04.636Z,18.40
2023-03-22T05:06:35.621Z,17.95
2023-03-22T05:09:05.219Z,10.18
2023-03-22T05:11:34.616Z,8.93
2023-03-22T05:14:04.824Z,9.35
2023-03-22T05:16:34.507Z,8.70
2023-03-22T05:19:04.002Z,14.93
2023-03-22T05:21:37.092Z,12.68
2023-03-22T05:24:07.464Z,12.25
2023-03-22T05:26:38.270Z,14.63
2023-03-22T05:29:07.656Z,14.90
2023-03-22T05:31:38.681Z,14.13
2023-03-22T05:34:08.298Z,17.95
2023-03-22T05:36:39.300Z,21.15
2023-03-22T05:39:09.107Z,17.00
2023-03-22T05:41:38.480Z,21.23
2023-03-22T05:44:08.429Z,19.90
2023-03-22T05:46:37.893Z,18.83
2023-03-22T05:49:07.277Z,19.00
2023-03-22T05:51:41.931Z,18.65
2023-03-22T05:54:12.024Z,19.65
2023-03-22T05:56:41.374Z,18.88
2023-03-22T05:59:10.774Z,16.77
2023-03-22T06:01:41.264Z,19.05
2023-03-22T06:04:10.821Z,14.93
2023-03-22T06:06:42.134Z,12.05
2023-03-22T06:09:17.259Z,13.48
2023-03-22T06:11:47.301Z,14.43
2023-03-22T06:14:17.169Z,12.52
2023-03-22T06:16:46.559Z,16.38
2023-03-22T06:19:16.121Z,14.32
2023-03-22T06:21:46.919Z,17.23
2023-03-22T06:24:16.398Z,14.15
2023-03-22T06:26:45.813Z,14.05
2023-03-22T06:29:15.731Z,20.75
2023-03-22T06:31:45.007Z,20.77
2023-03-22T06:34:14.289Z,22.88
2023-03-22T06:36:43.723Z,17.65
2023-03-22T06:39:14.532Z,18.27
2023-03-22T06:41:43.752Z,15.65
2023-03-22T06:44:13.308Z,16.80
2023-03-22T06:46:42.646Z,14.68
2023-03-22T06:51:19.450Z,18.25
2023-03-22T06:53:48.890Z,14.55
2023-03-22T06:56:18.304Z,15.38
2023-03-22T06:58:47.972Z,16.70
2023-03-22T07:01:17.831Z,14.73
2023-03-22T07:03:47.431Z,17.17
2023-03-22T07:06:19.688Z,20.05
2023-03-22T07:08:50.800Z,21.17
2023-03-22T07:11:22.500Z,21.98
2023-03-22T07:13:51.940Z,21.98
2023-03-22T07:16:22.013Z,18.33
2023-03-22T07:18:51.294Z,18.50
2023-03-22T07:21:22.167Z,15.30
2023-03-22T07:23:51.488Z,18.58
2023-03-22T07:26:20.949Z,19.58
2023-03-22T07:28:50.347Z,17.63
2023-03-22T07:31:19.957Z,19.70
2023-03-22T07:33:49.913Z,15.52
2023-03-22T07:36:24.069Z,12.95
2023-03-22T07:38:53.581Z,14.02
2023-03-22T07:41:24.253Z,12.00
2023-03-22T07:44:02.232Z,20.55
2023-03-22T07:46:37.692Z,17.05
2023-03-22T07:49:07.115Z,16.00
2023-03-22T07:51:37.956Z,16.45
2023-03-22T07:54:07.882Z,22.65
2023-03-22T07:56:37.419Z,16.73
2023-03-22T07:59:06.918Z,18.90
2023-03-22T08:01:36.400Z,20.92
2023-03-22T08:04:05.746Z,18.35
2023-03-22T08:06:37.217Z,17.35
2023-03-22T08:09:08.595Z,14.88
2023-03-22T08:11:38.132Z,16.45
2023-03-22T08:14:07.560Z,18.35
2023-03-22T08:16:38.702Z,13.88
2023-03-22T08:19:09.817Z,14.65
2023-03-22T08:21:41.078Z,15.00
2023-03-22T08:24:10.998Z,16.15
2023-03-22T08:26:40.831Z,14.15
2023-03-22T08:29:10.139Z,12.32
2023-03-22T08:31:39.611Z,12.73
2023-03-22T08:34:08.997Z,11.30
2023-03-22T08:36:41.208Z,13.07
2023-03-22T08:39:10.792Z,11.90
2023-03-22T08:41:41.284Z,11.02
2023-03-22T08:44:11.319Z,11.68
2023-03-22T08:46:40.840Z,10.68
2023-03-22T08:49:10.676Z,9.85
2023-03-22T08:51:42.030Z,12.85
2023-03-22T08:54:11.991Z,13.88
2023-03-22T08:56:42.026Z,15.50
2023-03-22T08:59:12.217Z,13.18
2023-03-22T09:01:41.844Z,13.02
2023-03-22T09:04:11.505Z,12.48
2023-03-22T09:06:45.505Z,11.13
2023-03-22T09:09:15.450Z,10.43
2023-03-22T09:11:45.010Z,8.02
2023-03-22T09:14:14.464Z,9.95
2023-03-22T09:16:43.807Z,8.65
2023-03-22T09:19:13.388Z,7.85
2023-03-22T09:21:44.355Z,10.65
2023-03-22T09:24:14.050Z,7.97
2023-03-22T09:26:43.377Z,7.43
2023-03-22T09:29:13.209Z,10.13
2023-03-22T09:31:43.658Z,9.68
2023-03-22T09:34:13.052Z,10.88
2023-03-22T09:36:43.808Z,9.85
2023-03-22T09:39:13.229Z,11.20
2023-03-22T09:41:48.067Z,8.23
2023-03-22T09:44:24.278Z,9.00
2023-03-22T09:47:00.218Z,8.65
2023-03-22T09:51:34.346Z,9.70
2023-03-22T09:54:04.676Z,10.57
2023-03-22T09:56:35.380Z,9.95
2023-03-22T09:59:13.653Z,10.50
2023-03-22T10:01:52.561Z,10.55
2023-03-22T10:04:42.586Z,12.57
2023-03-22T10:07:27.517Z,15.30
2023-03-22T10:10:18.119Z,12.38
2023-03-22T10:12:57.854Z,11.88
2023-03-22T10:15:33.992Z,12.32
2023-03-22T10:18:08.380Z,13.15
2023-03-22T10:20:45.888Z,11.25
2023-03-22T10:23:21.795Z,10.48
2023-03-22T10:25:53.186Z,16.13
2023-03-22T10:28:26.883Z,11.45
2023-03-22T10:30:59.129Z,12.23
2023-03-22T10:33:40.477Z,11.07
2023-03-22T10:36:14.969Z,9.25
2023-03-22T10:38:50.720Z,12.13
2023-03-22T10:41:23.553Z,10.38
2023-03-22T10:43:56.715Z,11.40
2023-03-22T10:46:30.502Z,8.88
2023-03-22T10:49:03.957Z,11.27
2023-03-22T10:51:40.412Z,9.63
2023-03-22T10:54:17.522Z,9.52
2023-03-22T10:56:46.831Z,7.43
2023-03-22T10:59:51.431Z,6.63
2023-03-22T11:02:25.026Z,7.60
2023-03-22T11:04:57.413Z,7.18
2023-03-22T11:07:35.017Z,6.65
2023-03-22T11:10:24.658Z,6.45
2023-03-22T11:13:00.817Z,6.60
2023-03-22T11:15:32.936Z,6.90
2023-03-22T11:18:12.295Z,14.00
2023-03-22T11:20:44.455Z,23.88
2023-03-22T11:23:18.324Z,24.10
2023-03-22T11:25:52.291Z,20.10
2023-03-22T11:28:23.808Z,17.30
2023-03-22T11:31:08.611Z,19.25
2023-03-22T11:33:39.934Z,14.45
2023-03-22T11:36:20.030Z,17.17
2023-03-22T11:38:49.690Z,17.85
2023-03-22T11:41:27.593Z,17.38
2023-03-22T11:43:59.591Z,15.73
2023-03-22T11:46:29.395Z,15.87
2023-03-22T11:49:06.175Z,13.23
2023-03-22T11:51:39.251Z,13.55
2023-03-22T11:54:12.200Z,14.65
2023-03-22T11:56:47.056Z,15.32
2023-03-22T11:59:22.832Z,13.77
2023-03-22T12:01:59.130Z,11.80
2023-03-22T12:04:33.159Z,13.52
2023-03-22T12:07:07.131Z,13.52
2023-03-22T12:09:44.806Z,15.60
2023-03-22T12:12:21.406Z,16.30
2023-03-22T12:14:56.333Z,13.55
2023-03-22T12:17:33.870Z,15.32
2023-03-22T12:20:13.941Z,14.35
2023-03-22T12:22:51.332Z,11.60
2023-03-22T12:25:24.943Z,12.70
2023-03-22T12:27:59.754Z,11.30
2023-03-22T12:30:35.709Z,11.45
2023-03-22T12:33:12.322Z,8.95
2023-03-22T12:35:47.028Z,9.65
2023-03-22T12:38:28.275Z,10.00
2023-03-22T12:41:03.865Z,11.85
2023-03-22T12:43:47.083Z,10.38
2023-03-22T12:46:22.342Z,12.60
2023-03-22T12:51:19.258Z,13.45
2023-03-22T12:53:52.720Z,12.95
2023-03-22T12:56:26.354Z,12.32
2023-03-22T12:58:59.138Z,12.43
2023-03-22T13:01:38.569Z,15.25
2023-03-22T13:04:32.074Z,14.90
2023-03-22T13:07:17.308Z,12.68
2023-03-22T13:09:48.899Z,11.65
2023-03-22T13:13:13.595Z,10.20
2023-03-22T13:16:00.470Z,8.55
2023-03-22T13:19:00.250Z,8.93
2023-03-22T13:21:33.634Z,6.10
2023-03-22T13:24:25.862Z,5.93
2023-03-22T13:26:57.070Z,5.27
2023-03-22T13:29:36.685Z,5.30
2023-03-22T13:32:09.257Z,7.07
2023-03-22T13:34:41.171Z,7.40
2023-03-22T13:37:30.478Z,6.13
2023-03-22T13:40:02.501Z,4.20
2023-03-22T13:42:38.349Z,3.90
2023-03-22T13:45:31.770Z,5.10
2023-03-22T13:48:07.840Z,5.85
2023-03-22T13:50:39.092Z,5.65
2023-03-22T13:53:16.972Z,4.53
2023-03-22T13:56:03.507Z,6.30
2023-03-22T13:58:49.831Z,4.85
2023-03-22T14:01:29.454Z,4.80
2023-03-22T14:04:03.567Z,5.25
2023-03-22T14:06:36.868Z,3.88
2023-03-22T14:09:17.751Z,4.78
2023-03-22T14:11:56.503Z,3.70
2023-03-22T14:14:32.952Z,5.45
2023-03-22T14:17:09.675Z,5.93
2023-03-22T14:19:39.308Z,4.97
